Time;durP1;ratioP1;P1;durP2;ratioP2;P2;SDS_P1;SDS_P2;PMS_P1;PMS_P2;Temp;Humidity;BMP_temperature;BMP_pressure;BME280_temperature;BME280_humidity;BME280_pressure;Samples;Min_cycle;Max_cycle;Signal;HPM_P1;HPM_P2
2023/08/04 00:00:11;;;;;;;10.55;9.55;;;;;;;27.17;49.07;94595.63;5089633;28;20497;-83
2023/08/04 00:02:37;;;;;;;11.18;9.57;;;;;;;27.15;49.46;94597.50;5088150;28;20482;-82
2023/08/04 00:05:03;;;;;;;11.07;9.48;;;;;;;27.09;49.60;94600.47;5087738;28;20372;-82
2023/08/04 00:07:29;;;;;;;11.88;9.90;;;;;;;27.05;49.86;94591.56;5087818;28;20055;-81
2023/08/04 00:09:54;;;;;;;10.27;9.18;;;;;;;27.05;49.69;94602.84;5087637;28;20024;-82
2023/08/04 00:12:20;;;;;;;11.38;10.32;;;;;;;26.99;49.79;94616.34;5087887;28;20031;-82
2023/08/04 00:14:47;;;;;;;10.85;9.73;;;;;;;26.96;49.72;94609.00;5088821;28;20028;-83
2023/08/04 00:17:12;;;;;;;11.23;9.85;;;;;;;26.92;49.82;94611.41;5087605;28;20028;-82
2023/08/04 00:19:39;;;;;;;10.98;9.93;;;;;;;26.85;49.92;94609.31;5088835;28;20013;-83
2023/08/04 00:22:04;;;;;;;10.52;9.43;;;;;;;26.83;49.72;94611.91;5087159;28;20071;-82
2023/08/04 00:24:30;;;;;;;11.75;9.85;;;;;;;26.82;49.95;94616.03;5088938;28;20056;-82
2023/08/04 00:26:55;;;;;;;10.90;9.80;;;;;;;26.76;50.19;94610.53;5088881;28;20554;-82
2023/08/04 00:29:20;;;;;;;10.40;9.40;;;;;;;26.71;50.20;94609.38;5089022;28;20062;-82
2023/08/04 00:31:46;;;;;;;12.20;10.13;;;;;;;26.71;50.21;94614.25;5088282;28;20538;-82
2023/08/04 00:34:11;;;;;;;12.65;9.95;;;;;;;26.70;50.56;94619.16;5088903;28;20024;-82
2023/08/04 00:36:37;;;;;;;11.15;9.95;;;;;;;26.68;50.49;94613.31;5088458;28;20359;-82
2023/08/04 00:39:03;;;;;;;11.10;10.00;;;;;;;26.63;50.52;94605.00;5088178;28;20475;-82
2023/08/04 00:41:29;;;;;;;11.80;10.07;;;;;;;26.62;50.87;94617.59;5087460;28;20035;-82
2023/08/04 00:43:54;;;;;;;11.48;10.30;;;;;;;26.60;50.93;94620.19;5087355;28;20028;-82
2023/08/04 00:46:20;;;;;;;11.45;10.32;;;;;;;26.54;51.16;94620.31;5095777;28;20073;-82
2023/08/04 00:48:46;;;;;;;11.38;10.30;;;;;;;26.49;51.14;94621.22;5086902;28;20020;-82
2023/08/04 00:51:11;;;;;;;12.45;10.05;;;;;;;26.46;51.35;94613.88;5087184;28;20028;-82
2023/08/04 00:53:37;;;;;;;11.50;10.30;;;;;;;26.44;50.86;94616.50;5088096;28;20028;-82
2023/08/04 00:56:02;;;;;;;10.82;9.73;;;;;;;26.43;50.95;94623.41;5086776;28;20032;-82
2023/08/04 00:58:29;;;;;;;11.23;10.07;;;;;;;26.39;50.97;94620.19;5087072;28;20067;-82
2023/08/04 01:00:55;;;;;;;11.18;10.07;;;;;;;26.40;50.80;94622.44;5087767;28;20036;-82
2023/08/04 01:03:22;;;;;;;10.70;9.63;;;;;;;26.34;51.12;94618.25;5088074;28;20035;-82
2023/08/04 01:05:59;;;;;;;10.90;9.68;;;;;;;26.34;51.04;94612.63;5085591;28;20032;-82
2023/08/04 01:08:30;;;;;;;11.00;9.93;;;;;;;26.27;51.08;94602.78;5088095;28;20044;-82
2023/08/04 01:11:01;;;;;;;10.75;9.65;;;;;;;26.23;51.04;94607.25;5086342;28;20056;-82
2023/08/04 01:13:28;;;;;;;11.30;10.10;;;;;;;26.17;51.13;94602.50;5086835;28;20034;-82
2023/08/04 01:15:54;;;;;;;12.73;10.48;;;;;;;26.18;51.11;94606.06;5086375;28;20028;-82
2023/08/04 01:18:21;;;;;;;12.93;9.95;;;;;;;26.15;51.10;94607.16;5086461;28;20032;-82
2023/08/04 01:20:47;;;;;;;11.05;9.95;;;;;;;26.10;51.35;94608.81;5086326;28;20103;-82
2023/08/04 01:23:12;;;;;;;12.23;10.93;;;;;;;26.05;51.06;94611.75;5086198;28;20032;-82
2023/08/04 01:25:38;;;;;;;11.52;10.38;;;;;;;26.02;50.78;94604.41;5069577;28;20028;-82
2023/08/04 01:28:13;;;;;;;10.60;9.60;;;;;;;25.99;51.07;94609.06;5085760;28;20027;-82
2023/08/04 01:30:39;;;;;;;11.88;9.85;;;;;;;25.99;50.95;94611.91;5069482;28;20505;-82
2023/08/04 01:33:04;;;;;;;11.63;10.35;;;;;;;25.97;50.98;94622.19;5086026;28;20410;-82
2023/08/04 01:35:30;;;;;;;11.15;9.98;;;;;;;25.95;51.19;94611.47;5069071;28;20024;-82
2023/08/04 01:37:55;;;;;;;10.68;9.57;;;;;;;25.94;51.38;94610.72;5087171;28;20099;-82
2023/08/04 01:40:21;;;;;;;10.60;9.00;;;;;;;25.94;51.25;94616.34;5085862;28;20024;-82
2023/08/04 01:42:46;;;;;;;10.68;9.57;;;;;;;25.94;51.39;94615.59;5086980;28;20031;-82
2023/08/04 01:45:12;;;;;;;12.43;10.05;;;;;;;25.93;51.51;94611.25;5086989;28;20028;-81
2023/08/04 01:47:38;;;;;;;11.05;9.88;;;;;;;25.88;51.59;94612.91;5090737;28;20111;-81
2023/08/04 01:50:06;;;;;;;12.02;10.23;;;;;;;25.86;51.73;94621.16;5089039;28;20119;-82
2023/08/04 01:52:32;;;;;;;11.70;9.70;;;;;;;25.83;51.93;94618.66;5087155;28;20085;-81
2023/08/04 01:54:58;;;;;;;11.10;9.73;;;;;;;25.85;51.88;94627.31;5085667;28;20032;-82
2023/08/04 01:57:23;;;;;;;11.02;9.93;;;;;;;25.83;52.02;94629.91;5087067;28;20036;-82
2023/08/04 01:59:49;;;;;;;10.68;9.57;;;;;;;25.75;52.20;94629.84;5085667;28;20486;-82
2023/08/04 02:02:14;;;;;;;11.13;10.02;;;;;;;25.76;52.22;94624.97;5086782;28;20523;-82
2023/08/04 02:04:40;;;;;;;11.65;10.45;;;;;;;25.72;52.33;94622.44;5086050;28;20081;-83
2023/08/04 02:07:05;;;;;;;11.73;10.20;;;;;;;25.71;52.35;94628.63;5086792;28;20020;-82
2023/08/04 02:09:32;;;;;;;12.07;10.05;;;;;;;25.68;52.69;94634.03;5086636;28;20043;-82
2023/08/04 02:11:58;;;;;;;12.13;10.38;;;;;;;25.64;52.52;94622.34;5086759;28;20028;-83
2023/08/04 02:14:23;;;;;;;11.55;9.93;;;;;;;25.63;52.22;94631.31;5086691;28;20024;-83
2023/08/04 02:16:48;;;;;;;11.52;10.43;;;;;;;25.57;52.53;94639.88;5086463;28;20055;-83
2023/08/04 02:19:14;;;;;;;12.00;10.80;;;;;;;25.53;52.91;94633.84;5086705;28;20016;-83
2023/08/04 02:21:39;;;;;;;14.93;9.80;;;;;;;25.55;52.95;94631.25;5086712;28;20453;-83
2023/08/04 02:24:05;;;;;;;10.02;9.15;;;;;;;25.57;52.82;94639.88;5086196;28;20024;-82
2023/08/04 02:26:31;;;;;;;11.00;9.73;;;;;;;25.54;52.78;94646.63;5085246;28;20038;-83
2023/08/04 02:28:56;;;;;;;12.85;10.95;;;;;;;25.52;52.94;94643.59;5084813;28;20020;-83
2023/08/04 02:31:24;;;;;;;11.05;10.02;;;;;;;25.51;53.06;94646.94;5085499;28;20831;-81
2023/08/04 02:33:50;;;;;;;10.55;9.55;;;;;;;25.47;53.12;94647.28;5085121;28;20073;-82
2023/08/04 02:36:16;;;;;;;11.13;10.13;;;;;;;25.45;53.15;94655.47;5086777;28;20101;-81
2023/08/04 02:38:41;;;;;;;12.05;10.50;;;;;;;25.43;53.45;94655.28;5086678;28;20028;-83
2023/08/04 02:41:09;;;;;;;11.77;10.27;;;;;;;25.42;53.16;94651.72;5085800;28;20471;-82
2023/08/04 02:43:34;;;;;;;11.10;9.95;;;;;;;25.38;53.22;94647.72;5085183;28;20133;-82
2023/08/04 02:45:59;;;;;;;12.05;9.95;;;;;;;25.36;53.43;94650.31;5086033;28;20095;-82
2023/08/04 02:48:25;;;;;;;11.75;10.57;;;;;;;25.34;53.43;94648.03;5084978;28;20028;-82
2023/08/04 02:51:01;;;;;;;13.10;10.63;;;;;;;25.30;53.37;94655.28;5090394;28;20063;-81
2023/08/04 02:53:27;;;;;;;12.75;10.93;;;;;;;25.27;53.51;94647.94;5087125;28;20498;-82
2023/08/04 02:55:52;;;;;;;12.00;10.48;;;;;;;25.23;53.93;94653.88;5086232;28;20088;-83
2023/08/04 02:58:18;;;;;;;11.48;10.27;;;;;;;25.19;53.89;94649.88;5085956;28;20111;-83
2023/08/04 03:00:43;;;;;;;11.13;10.02;;;;;;;25.15;53.87;94650.94;5086383;28;20069;-83
2023/08/04 03:03:08;;;;;;;11.73;9.77;;;;;;;25.16;53.77;94654.53;5085682;28;20362;-83
2023/08/04 03:05:34;;;;;;;13.38;10.73;;;;;;;25.11;53.85;94658.19;5084880;28;20023;-83
2023/08/04 03:08:00;;;;;;;11.82;10.57;;;;;;;25.10;54.02;94663.06;5084650;28;20082;-83
2023/08/04 03:10:25;;;;;;;11.73;10.48;;;;;;;25.08;53.77;94662.09;5085809;28;20020;-83
2023/08/04 03:12:51;;;;;;;12.80;11.55;;;;;;;25.02;53.97;94656.56;5085989;28;20028;-83
2023/08/04 03:15:16;;;;;;;12.20;10.90;;;;;;;25.01;54.24;94652.22;5085940;28;20569;-83
2023/08/04 03:17:41;;;;;;;12.15;10.95;;;;;;;24.96;54.24;94664.34;5084580;28;20443;-83
2023/08/04 03:20:07;;;;;;;13.57;11.43;;;;;;;24.93;54.35;94648.53;5084043;28;20083;-83
2023/08/04 03:22:33;;;;;;;14.55;11.23;;;;;;;24.92;54.04;94651.88;5086419;28;20032;-82
2023/08/04 03:24:58;;;;;;;14.07;12.48;;;;;;;24.88;54.03;94657.81;5086078;28;20429;-83
2023/08/04 03:27:23;;;;;;;13.48;11.35;;;;;;;24.88;54.44;94652.19;5085817;28;20107;-83
2023/08/04 03:29:49;;;;;;;13.15;11.85;;;;;;;24.84;54.37;94654.59;5088767;28;20031;-83
2023/08/04 03:32:14;;;;;;;12.25;11.02;;;;;;;24.82;54.49;94654.34;5089823;28;20032;-83
2023/08/04 03:34:40;;;;;;;14.88;11.85;;;;;;;24.80;54.60;94654.91;5088568;28;20467;-83
2023/08/04 03:37:05;;;;;;;14.20;11.57;;;;;;;24.78;54.50;94659.56;5071036;28;20047;-83
2023/08/04 03:39:30;;;;;;;12.25;10.93;;;;;;;24.77;54.51;94660.81;5089989;28;20024;-83
2023/08/04 03:41:56;;;;;;;14.65;11.07;;;;;;;24.76;54.91;94662.13;5089135;28;20483;-83
2023/08/04 03:44:21;;;;;;;13.25;11.45;;;;;;;24.77;54.77;94658.00;5089556;28;20028;-83
2023/08/04 03:46:46;;;;;;;13.23;11.13;;;;;;;24.73;54.91;94663.97;5089401;28;20387;-83
2023/08/04 03:49:12;;;;;;;12.43;11.20;;;;;;;24.73;54.82;94657.59;5089670;28;20103;-83
2023/08/04 03:51:37;;;;;;;12.85;11.50;;;;;;;24.75;54.57;94657.81;5089625;28;20452;-82
2023/08/04 03:54:03;;;;;;;12.73;11.52;;;;;;;24.74;54.46;94662.66;5089290;28;20059;-82
2023/08/04 03:56:28;;;;;;;13.68;11.73;;;;;;;24.73;54.54;94666.78;5090608;28;20020;-83
2023/08/04 03:58:53;;;;;;;15.43;11.50;;;;;;;24.76;54.62;94659.31;5088811;28;20494;-83
2023/08/04 04:01:19;;;;;;;13.63;10.82;;;;;;;24.77;55.04;94661.56;5088016;28;20024;-83
2023/08/04 04:03:44;;;;;;;14.27;11.90;;;;;;;24.76;54.85;94659.31;5088029;28;20416;-83
2023/08/04 04:06:10;;;;;;;17.45;12.23;;;;;;;24.71;54.95;94657.34;5087662;28;20500;-83
2023/08/04 04:08:35;;;;;;;18.00;12.65;;;;;;;24.79;54.84;94664.63;5089355;28;20036;-83
2023/08/04 04:11:00;;;;;;;14.05;11.73;;;;;;;24.81;54.93;94661.28;5087437;28;20493;-83
2023/08/04 04:13:26;;;;;;;12.43;11.13;;;;;;;24.82;54.95;94662.78;5071158;28;20063;-83
2023/08/04 04:15:51;;;;;;;16.02;12.70;;;;;;;24.85;54.43;94673.72;5088746;28;20058;-83
2023/08/04 04:18:17;;;;;;;14.25;12.55;;;;;;;24.87;54.50;94667.56;5089253;28;20081;-83
2023/08/04 04:20:42;;;;;;;16.30;14.70;;;;;;;24.87;54.40;94671.13;5087312;28;20024;-83
2023/08/04 04:23:07;;;;;;;20.20;16.88;;;;;;;24.87;54.32;94667.56;5087618;28;20028;-83
2023/08/04 04:25:33;;;;;;;19.90;16.13;;;;;;;24.92;54.10;94675.13;5088977;28;20023;-83
2023/08/04 04:27:58;;;;;;;18.92;15.32;;;;;;;24.93;53.60;94673.81;5088702;28;20078;-83
2023/08/04 04:30:24;;;;;;;15.88;13.95;;;;;;;24.93;53.58;94665.41;5088775;28;20055;-83
2023/08/04 04:32:49;;;;;;;13.40;12.00;;;;;;;24.98;53.86;94666.59;5088374;28;20016;-84
2023/08/04 04:35:14;;;;;;;14.07;11.07;;;;;;;25.02;53.25;94672.66;5089488;28;20131;-83
2023/08/04 04:37:40;;;;;;;12.90;11.52;;;;;;;25.04;53.17;94672.88;5088257;28;20054;-83
2023/08/04 04:40:06;;;;;;;15.75;12.32;;;;;;;24.97;53.51;94668.66;5088351;28;20930;-83
2023/08/04 04:42:33;;;;;;;14.18;12.10;;;;;;;25.09;53.31;94677.66;5088585;28;20024;-83
2023/08/04 04:44:58;;;;;;;20.05;15.93;;;;;;;25.10;53.31;94679.94;5086729;28;20517;-83
2023/08/04 04:47:24;;;;;;;14.88;13.30;;;;;;;25.12;53.23;94685.78;5088664;28;20039;-83
2023/08/04 04:49:49;;;;;;;16.20;13.45;;;;;;;25.13;53.11;94684.50;5086688;28;20024;-83
2023/08/04 04:52:29;;;;;;;14.35;12.38;;;;;;;25.12;53.27;94682.97;5088716;28;20103;-83
2023/08/04 04:54:54;;;;;;;19.33;12.10;;;;;;;25.15;53.16;94687.50;5086717;28;20498;-83
2023/08/04 04:57:21;;;;;;;14.88;12.35;;;;;;;25.14;53.09;94688.06;5094228;28;20039;-84
2023/08/04 04:59:48;;;;;;;15.35;12.65;;;;;;;25.20;53.09;94682.34;5090896;28;20605;-84
2023/08/04 05:02:13;;;;;;;15.20;12.50;;;;;;;25.20;53.50;94685.91;5087955;28;20058;-83
2023/08/04 05:04:39;;;;;;;13.93;12.18;;;;;;;25.26;53.27;94680.16;5088366;28;20111;-83
2023/08/04 05:07:04;;;;;;;15.32;12.25;;;;;;;25.23;53.06;94689.69;5086381;28;20544;-83
2023/08/04 05:09:30;;;;;;;17.83;12.57;;;;;;;25.24;53.28;94686.34;5088040;28;20098;-83
2023/08/04 05:11:55;;;;;;;16.75;11.57;;;;;;;25.26;53.20;94697.81;5087538;28;20024;-83
2023/08/04 05:14:20;;;;;;;15.45;12.77;;;;;;;25.31;53.00;94693.38;5088330;28;20086;-83
2023/08/04 05:16:46;;;;;;;14.10;12.05;;;;;;;25.26;53.21;94697.06;5087712;28;20059;-83
2023/08/04 05:19:11;;;;;;;14.07;12.48;;;;;;;25.26;52.97;94689.38;5087364;28;20025;-83
2023/08/04 05:21:37;;;;;;;15.50;12.52;;;;;;;25.29;53.33;94695.94;5086420;28;20107;-83
2023/08/04 05:24:02;;;;;;;18.67;12.35;;;;;;;25.27;53.12;94688.06;5087133;28;20034;-83
2023/08/04 05:26:28;;;;;;;13.90;12.05;;;;;;;25.31;53.06;94690.56;5088130;28;20388;-83
2023/08/04 05:28:53;;;;;;;13.95;12.05;;;;;;;25.33;53.08;94694.34;5085961;28;20540;-83
2023/08/04 05:31:18;;;;;;;15.63;12.60;;;;;;;25.36;53.14;94695.31;5086287;28;20081;-83
2023/08/04 05:33:44;;;;;;;13.68;11.80;;;;;;;25.39;53.00;94692.16;5087304;28;20020;-83
2023/08/04 05:36:09;;;;;;;14.68;12.10;;;;;;;25.41;53.24;94691.66;5086090;28;20110;-83
2023/08/04 05:38:34;;;;;;;13.82;12.40;;;;;;;25.43;52.93;94697.47;5087591;28;20470;-83
2023/08/04 05:41:01;;;;;;;14.98;12.40;;;;;;;25.45;52.91;94689.25;5087010;28;20395;-83
2023/08/04 05:43:27;;;;;;;13.73;12.20;;;;;;;25.50;52.67;94690.44;5087584;28;20031;-83
2023/08/04 05:45:53;;;;;;;16.10;12.07;;;;;;;25.54;52.49;94690.88;5085774;28;20020;-83
2023/08/04 05:48:19;;;;;;;14.55;12.48;;;;;;;25.56;52.76;94696.72;5087531;28;20023;-83
2023/08/04 05:50:45;;;;;;;14.90;11.73;;;;;;;25.61;52.40;94690.97;5085481;28;20020;-83
2023/08/04 05:53:10;;;;;;;18.02;12.13;;;;;;;25.60;52.41;94697.91;5087158;28;20024;-83
2023/08/04 05:55:36;;;;;;;14.95;12.27;;;;;;;25.61;52.21;94704.28;5085626;28;20016;-83
2023/08/04 05:58:02;;;;;;;16.88;12.43;;;;;;;25.66;51.96;94697.81;5085502;28;20513;-83
2023/08/04 06:00:29;;;;;;;14.48;13.02;;;;;;;25.72;51.65;94695.63;5089980;28;20024;-83
2023/08/04 06:02:55;;;;;;;16.25;12.73;;;;;;;25.71;51.80;94696.19;5085815;28;20028;-83
2023/08/04 06:05:20;;;;;;;13.32;11.98;;;;;;;25.72;51.92;94703.31;5087319;28;20022;-83
2023/08/04 06:07:47;;;;;;;15.77;12.30;;;;;;;25.73;51.66;94694.31;5085365;28;20397;-83
2023/08/04 06:10:13;;;;;;;16.25;12.65;;;;;;;25.75;51.51;94700.22;5086105;28;20028;-83
2023/08/04 06:12:38;;;;;;;15.73;12.98;;;;;;;25.79;51.35;94691.41;5085306;28;20107;-83
2023/08/04 06:15:04;;;;;;;14.43;12.35;;;;;;;25.81;51.30;94688.84;5085284;28;20036;-83
2023/08/04 06:17:30;;;;;;;16.55;12.40;;;;;;;25.85;51.12;94694.88;5086767;28;20027;-83
2023/08/04 06:19:56;;;;;;;16.42;13.18;;;;;;;25.90;51.37;94694.75;5084770;28;20055;-83
2023/08/04 06:22:21;;;;;;;15.32;13.43;;;;;;;25.99;51.21;94702.00;5085366;28;20402;-83
2023/08/04 06:24:46;;;;;;;19.48;13.55;;;;;;;26.04;50.91;94697.56;5085166;28;20032;-83
2023/08/04 06:27:12;;;;;;;15.85;12.90;;;;;;;26.09;50.81;94707.91;5087055;28;20386;-82
2023/08/04 06:29:37;;;;;;;15.70;12.70;;;;;;;26.13;50.65;94697.09;5085166;28;20013;-82
2023/08/04 06:32:03;;;;;;;15.68;13.13;;;;;;;26.17;50.69;94701.09;5086487;28;20020;-82
2023/08/04 06:34:28;;;;;;;15.68;12.93;;;;;;;26.22;50.68;94699.47;5086114;28;20023;-81
2023/08/04 06:36:54;;;;;;;15.07;13.07;;;;;;;26.31;50.63;94710.25;5084681;28;20028;-82
2023/08/04 06:39:19;;;;;;;18.10;13.50;;;;;;;26.37;50.24;94693.97;5086723;28;20020;-83
2023/08/04 06:41:44;;;;;;;16.90;13.45;;;;;;;26.42;50.03;94693.13;5086055;28;20085;-83
2023/08/04 06:44:13;;;;;;;15.55;12.65;;;;;;;26.52;50.07;94698.28;5085000;28;20028;-84
2023/08/04 06:46:38;;;;;;;17.67;12.70;;;;;;;26.62;49.97;94696.50;5084813;28;20061;-83
2023/08/04 06:49:03;;;;;;;16.55;13.73;;;;;;;26.67;49.25;94687.16;5068168;28;20062;-83
2023/08/04 06:51:29;;;;;;;23.55;14.38;;;;;;;26.75;49.16;94693.63;5085973;28;20479;-83
2023/08/04 06:53:54;;;;;;;14.55;12.82;;;;;;;26.84;49.32;94689.53;5086097;28;20028;-83
2023/08/04 06:56:20;;;;;;;15.20;12.75;;;;;;;26.94;48.99;94693.41;5086302;28;20459;-83
2023/08/04 06:58:45;;;;;;;17.20;13.20;;;;;;;27.02;49.16;94697.06;5085939;28;20055;-83
2023/08/04 07:01:10;;;;;;;16.98;13.23;;;;;;;27.08;48.86;94692.06;5086267;28;20053;-83
2023/08/04 07:03:36;;;;;;;18.92;13.65;;;;;;;27.16;48.82;94695.69;5089871;28;20505;-83
2023/08/04 07:06:01;;;;;;;14.88;13.20;;;;;;;27.27;48.79;94684.09;5089561;28;20039;-82
2023/08/04 07:08:27;;;;;;;18.38;13.80;;;;;;;27.37;48.46;94689.25;5090085;28;20506;-83
2023/08/04 07:10:52;;;;;;;14.90;12.65;;;;;;;27.47;48.19;94688.19;5090384;28;20012;-83
2023/08/04 07:13:17;;;;;;;15.10;12.30;;;;;;;27.58;48.15;94684.28;5090316;28;20034;-83
2023/08/04 07:16:03;;;;;;;16.00;12.40;;;;;;;27.71;47.40;94680.63;5090101;28;20027;-82
2023/08/04 07:18:29;;;;;;;24.10;13.15;;;;;;;27.81;47.02;94683.66;5089841;28;20040;-82
2023/08/04 07:21:03;;;;;;;17.33;13.68;;;;;;;27.93;46.80;94684.84;5089350;28;20039;-82
2023/08/04 07:23:29;;;;;;;15.88;12.65;;;;;;;28.05;46.54;94680.41;5088921;28;20024;-82
2023/08/04 07:25:57;;;;;;;14.98;12.75;;;;;;;28.12;46.20;94682.50;5089451;28;20071;-83
2023/08/04 07:28:22;;;;;;;21.42;14.50;;;;;;;28.19;46.27;94687.41;5088808;28;20035;-83
2023/08/04 07:30:48;;;;;;;20.60;13.75;;;;;;;28.31;45.81;94679.34;5089918;28;20024;-83
2023/08/04 07:33:13;;;;;;;28.55;14.15;;;;;;;28.38;45.32;94683.53;5089398;28;20498;-83
2023/08/04 07:35:39;;;;;;;20.13;13.30;;;;;;;28.50;45.20;94684.69;5089079;28;20411;-83
2023/08/04 07:38:04;;;;;;;19.65;12.25;;;;;;;28.60;44.43;94677.16;5089234;28;20020;-82
2023/08/04 07:40:29;;;;;;;15.88;10.85;;;;;;;28.67;44.16;94676.41;5088757;28;20020;-83
2023/08/04 07:42:55;;;;;;;13.85;11.27;;;;;;;28.65;43.51;94669.81;5089204;28;20405;-82
2023/08/04 07:45:20;;;;;;;14.38;11.18;;;;;;;28.84;43.22;94681.53;5089931;28;20032;-82
2023/08/04 07:47:46;;;;;;;13.95;11.55;;;;;;;28.94;43.04;94676.84;5071086;28;20020;-82
2023/08/04 07:50:11;;;;;;;13.35;10.98;;;;;;;29.05;43.11;94684.94;5089431;28;20478;-82
2023/08/04 07:52:36;;;;;;;14.00;11.38;;;;;;;29.13;43.41;94673.63;5089692;28;20051;-82
2023/08/04 07:55:02;;;;;;;12.73;10.52;;;;;;;29.22;42.26;94678.72;5089055;28;20081;-82
2023/08/04 07:57:28;;;;;;;11.13;9.80;;;;;;;29.35;42.40;94680.59;5089756;28;20050;-82
2023/08/04 07:59:54;;;;;;;12.30;10.38;;;;;;;29.49;41.47;94667.75;5087540;28;20023;-82
2023/08/04 08:02:19;;;;;;;11.77;9.38;;;;;;;29.61;41.64;94668.13;5071401;28;20089;-82
2023/08/04 08:04:44;;;;;;;13.10;10.27;;;;;;;29.69;41.29;94670.91;5087640;28;20092;-82
2023/08/04 08:07:10;;;;;;;10.85;9.73;;;;;;;29.77;41.33;94671.66;5092186;28;20034;-82
2023/08/04 08:09:35;;;;;;;14.52;10.07;;;;;;;29.89;40.82;94667.84;5089340;28;20468;-82
2023/08/04 08:12:01;;;;;;;11.60;9.98;;;;;;;30.04;39.96;94666.25;5088564;28;20116;-82
2023/08/04 08:14:26;;;;;;;10.38;9.30;;;;;;;30.09;40.01;94668.13;5087287;28;20031;-82
2023/08/04 08:16:52;;;;;;;11.07;9.25;;;;;;;30.17;40.03;94673.81;5086812;28;20478;-82
2023/08/04 08:19:17;;;;;;;11.02;9.68;;;;;;;30.25;40.04;94652.59;5087430;28;20024;-82
2023/08/04 08:21:43;;;;;;;10.95;9.38;;;;;;;30.37;39.07;94656.47;5088208;28;20536;-82
2023/08/04 08:24:09;;;;;;;9.52;8.65;;;;;;;30.49;38.79;94656.03;5070213;28;20028;-82
2023/08/04 08:26:34;;;;;;;9.65;8.65;;;;;;;30.61;38.47;94665.59;5087191;28;20761;-82
2023/08/04 08:29:01;;;;;;;11.35;8.43;;;;;;;30.72;38.49;94659.50;5088676;28;20046;-81
2023/08/04 08:31:27;;;;;;;10.70;8.80;;;;;;;30.84;37.73;94662.63;5088736;28;20028;-82
2023/08/04 08:33:53;;;;;;;10.43;8.68;;;;;;;30.99;37.56;94664.59;5070091;28;20024;-82
2023/08/04 08:36:19;;;;;;;9.55;8.38;;;;;;;31.14;36.28;94668.09;5070352;28;20030;-82
2023/08/04 08:38:44;;;;;;;8.50;7.60;;;;;;;31.24;36.44;94662.47;5086797;28;20032;-82
2023/08/04 08:41:11;;;;;;;11.27;8.65;;;;;;;31.30;36.59;94660.19;5087110;28;20382;-82
2023/08/04 08:43:37;;;;;;;11.05;8.95;;;;;;;31.43;36.42;94659.88;5087982;28;20035;-82
2023/08/04 08:46:03;;;;;;;15.35;8.20;;;;;;;31.62;35.85;94650.78;5088106;28;20028;-82
2023/08/04 08:48:30;;;;;;;8.57;7.68;;;;;;;31.71;35.46;94655.03;5086821;28;20486;-82
2023/08/04 08:51:00;;;;;;;8.55;7.47;;;;;;;31.82;35.83;94648.88;5086537;28;20061;-82
2023/08/04 08:53:30;;;;;;;9.38;7.15;;;;;;;31.96;34.89;94643.59;5087412;28;20476;-82
2023/08/04 08:55:55;;;;;;;8.18;7.20;;;;;;;32.12;35.12;94644.19;5087984;28;20389;-82
2023/08/04 08:58:21;;;;;;;8.82;6.93;;;;;;;32.24;34.75;94640.22;5087091;28;20437;-82
2023/08/04 09:00:46;;;;;;;8.85;7.95;;;;;;;32.37;34.53;94632.69;5086611;28;20028;-82
2023/08/04 09:03:12;;;;;;;10.32;7.38;;;;;;;32.58;34.01;94635.03;5086748;28;20513;-82
2023/08/04 09:05:37;;;;;;;8.63;7.18;;;;;;;32.70;33.00;94630.31;5087774;28;20020;-82
2023/08/04 09:08:03;;;;;;;7.65;6.95;;;;;;;32.85;32.54;94629.28;5086184;28;20044;-82
2023/08/04 09:10:28;;;;;;;10.27;7.43;;;;;;;32.97;32.68;94630.25;5092251;28;20562;-82
2023/08/04 09:12:56;;;;;;;7.88;7.07;;;;;;;33.09;32.95;94627.59;5087634;28;20031;-82
2023/08/04 09:15:33;;;;;;;7.93;7.13;;;;;;;33.18;32.62;94621.94;5086882;28;20060;-83
2023/08/04 09:17:58;;;;;;;7.75;6.97;;;;;;;33.29;32.54;94618.50;5087342;28;20030;-82
2023/08/04 09:20:28;;;;;;;8.32;7.25;;;;;;;33.47;32.81;94616.31;5086432;28;20028;-83
2023/08/04 09:22:54;;;;;;;9.15;7.28;;;;;;;33.61;32.41;94621.56;5085821;28;20035;-83
2023/08/04 09:25:19;;;;;;;9.45;7.05;;;;;;;33.78;32.02;94619.34;5086205;28;20028;-82
2023/08/04 09:27:49;;;;;;;9.75;7.60;;;;;;;33.96;31.93;94611.41;5087076;28;20305;-82
2023/08/04 09:30:16;;;;;;;8.73;7.38;;;;;;;34.12;31.19;94617.50;5085693;28;20486;-82
2023/08/04 09:32:50;;;;;;;8.65;7.45;;;;;;;34.23;31.48;94610.44;5086664;28;20020;-82
2023/08/04 09:35:16;;;;;;;9.65;7.40;;;;;;;34.47;30.79;94605.78;5087367;28;20058;-82
2023/08/04 09:37:42;;;;;;;7.63;6.82;;;;;;;34.60;30.48;94603.16;5086322;28;20053;-82
2023/08/04 09:40:18;;;;;;;9.00;6.88;;;;;;;34.71;30.78;94598.19;5085700;28;20024;-82
2023/08/04 09:42:44;;;;;;;8.73;6.97;;;;;;;34.91;30.86;94599.56;5068888;28;20032;-82
2023/08/04 09:45:18;;;;;;;9.07;6.90;;;;;;;35.09;30.35;94602.97;5069103;28;20101;-82
2023/08/04 09:47:51;;;;;;;7.50;6.80;;;;;;;35.29;30.38;94610.06;5085923;28;20031;-82
2023/08/04 09:50:19;;;;;;;8.90;7.15;;;;;;;35.46;29.50;94603.38;5085979;28;20016;-83
2023/08/04 09:52:45;;;;;;;7.43;6.80;;;;;;;35.58;29.64;94600.56;5085320;28;20031;-82
2023/08/04 09:55:10;;;;;;;7.47;6.78;;;;;;;35.78;29.31;94598.28;5085802;28;20420;-83
2023/08/04 09:57:39;;;;;;;7.50;6.80;;;;;;;35.97;28.65;94594.56;5088258;28;20020;-83
2023/08/04 10:00:07;;;;;;;8.60;7.80;;;;;;;36.10;28.47;94589.00;5086382;28;20020;-80
2023/08/04 10:02:33;;;;;;;9.13;7.15;;;;;;;36.19;28.10;94593.16;5088251;28;20486;-79
2023/08/04 10:04:59;;;;;;;8.88;6.93;;;;;;;36.29;27.82;94596.63;5087369;28;20024;-81
2023/08/04 10:07:24;;;;;;;8.48;7.57;;;;;;;36.43;27.53;94586.13;5086748;28;20030;-80
2023/08/04 10:09:50;;;;;;;8.52;7.63;;;;;;;36.51;27.90;94585.88;5086031;28;20036;-80
2023/08/04 10:12:17;;;;;;;9.32;7.15;;;;;;;36.68;28.00;94588.38;5088785;28;20051;-80
2023/08/04 10:14:44;;;;;;;9.13;7.25;;;;;;;36.86;27.14;94583.03;5085386;28;20062;-82
2023/08/04 10:17:09;;;;;;;8.80;7.90;;;;;;;37.07;27.32;94579.34;5085333;28;20115;-82
2023/08/04 10:19:35;;;;;;;7.55;6.85;;;;;;;37.18;26.37;94572.09;5085287;28;20554;-81
2023/08/04 10:22:08;;;;;;;6.68;6.10;;;;;;;37.39;26.38;94566.22;5084769;28;20081;-80
2023/08/04 10:24:38;;;;;;;7.07;6.20;;;;;;;37.67;25.79;94575.72;5086085;28;20116;-81
2023/08/04 10:27:23;;;;;;;7.65;6.35;;;;;;;37.79;25.10;94563.47;5085243;28;20085;-81
2023/08/04 10:30:03;;;;;;;7.40;6.70;;;;;;;38.02;24.76;94571.25;5085989;28;20038;-81
2023/08/04 10:32:36;;;;;;;10.70;6.55;;;;;;;38.18;24.84;94567.16;5087505;28;20084;-81
2023/08/04 10:35:04;;;;;;;9.05;6.30;;;;;;;38.40;24.42;94561.22;5085880;28;20056;-80
2023/08/04 10:37:29;;;;;;;6.20;5.60;;;;;;;38.52;22.64;94565.50;5087934;28;20020;-81
2023/08/04 10:39:55;;;;;;;6.80;6.18;;;;;;;38.52;23.01;94567.63;5085266;28;20028;-81
2023/08/04 10:42:22;;;;;;;7.32;6.35;;;;;;;38.56;22.90;94567.84;5086923;28;20111;-81
2023/08/04 10:44:55;;;;;;;6.72;6.07;;;;;;;38.62;23.30;94559.56;5086128;28;20063;-81
2023/08/04 10:47:52;;;;;;;7.45;6.30;;;;;;;38.83;23.79;94544.19;5085292;28;20056;-81
2023/08/04 10:50:18;;;;;;;6.97;6.28;;;;;;;39.01;23.42;94548.03;5084965;28;20035;-82
2023/08/04 10:52:43;;;;;;;6.60;5.90;;;;;;;39.22;22.21;94541.22;5084519;28;20095;-82
2023/08/04 10:55:13;;;;;;;6.25;5.63;;;;;;;39.44;22.45;94535.13;5085047;28;20028;-82
2023/08/04 10:57:40;;;;;;;8.15;6.43;;;;;;;39.61;22.63;94540.34;5084366;28;20032;-82
2023/08/04 11:00:10;;;;;;;6.43;5.75;;;;;;;39.59;21.67;94536.59;5086151;28;20024;-81
2023/08/04 11:02:36;;;;;;;6.28;5.35;;;;;;;39.52;21.22;94547.06;5068137;28;20034;-81
2023/08/04 11:05:05;;;;;;;6.50;5.90;;;;;;;39.31;22.31;94542.41;5084609;28;20024;-83
2023/08/04 11:07:31;;;;;;;6.45;5.70;;;;;;;39.42;22.04;94532.16;5085096;28;20081;-82
2023/08/04 11:09:56;;;;;;;9.38;6.75;;;;;;;39.49;22.08;94542.56;5045388;28;20037;-82
2023/08/04 11:12:21;;;;;;;8.00;6.10;;;;;;;39.58;21.75;94544.47;5045208;28;20025;-81
2023/08/04 11:14:49;;;;;;;6.60;5.80;;;;;;;39.40;21.82;94534.91;5046898;28;20031;-82
2023/08/04 11:17:16;;;;;;;9.25;7.40;;;;;;;39.41;22.55;94528.53;5047625;28;20162;-81